sensor_id;sensor_type;location;lat;lon;timestamp;P1;durP1;ratioP1;P2;durP2;ratioP2
35530;SDS011;21637;53.352;-6.356;2023-08-06T00:00:17;7.03;;;3.60;;
35530;SDS011;21637;53.352;-6.356;2023-08-06T00:02:43;6.75;;;3.38;;
35530;SDS011;21637;53.352;-6.356;2023-08-06T00:05:08;5.47;;;3.28;;
35530;SDS011;21637;53.352;-6.356;2023-08-06T00:07:34;6.90;;;3.60;;
35530;SDS011;21637;53.352;-6.356;2023-08-06T00:09:59;5.55;;;3.67;;
35530;SDS011;21637;53.352;-6.356;2023-08-06T00:12:25;4.47;;;3.30;;
35530;SDS011;21637;53.352;-6.356;2023-08-06T00:14:51;6.57;;;3.92;;
35530;SDS011;21637;53.352;-6.356;2023-08-06T00:17:18;11.25;;;3.85;;
35530;SDS011;21637;53.352;-6.356;2023-08-06T00:19:44;7.93;;;4.30;;
35530;SDS011;21637;53.352;-6.356;2023-08-06T00:22:10;5.75;;;3.28;;
35530;SDS011;21637;53.352;-6.356;2023-08-06T00:24:35;7.25;;;4.55;;
35530;SDS011;21637;53.352;-6.356;2023-08-06T00:27:01;6.55;;;4.10;;
35530;SDS011;21637;53.352;-6.356;2023-08-06T00:29:27;8.40;;;4.13;;
35530;SDS011;21637;53.352;-6.356;2023-08-06T00:31:53;7.45;;;3.67;;
35530;SDS011;21637;53.352;-6.356;2023-08-06T00:34:18;6.88;;;3.85;;
35530;SDS011;21637;53.352;-6.356;2023-08-06T00:36:44;6.72;;;3.63;;
35530;SDS011;21637;53.352;-6.356;2023-08-06T00:39:10;8.35;;;4.30;;
35530;SDS011;21637;53.352;-6.356;2023-08-06T00:41:36;9.48;;;4.88;;
35530;SDS011;21637;53.352;-6.356;2023-08-06T00:44:02;11.38;;;4.93;;
35530;SDS011;21637;53.352;-6.356;2023-08-06T00:46:28;10.55;;;4.78;;
35530;SDS011;21637;53.352;-6.356;2023-08-06T00:48:54;9.65;;;4.78;;
35530;SDS011;21637;53.352;-6.356;2023-08-06T00:51:21;5.97;;;4.13;;
35530;SDS011;21637;53.352;-6.356;2023-08-06T00:53:48;7.38;;;4.30;;
35530;SDS011;21637;53.352;-6.356;2023-08-06T00:56:15;12.38;;;4.97;;
35530;SDS011;21637;53.352;-6.356;2023-08-06T00:58:41;8.93;;;4.95;;
35530;SDS011;21637;53.352;-6.356;2023-08-06T01:01:07;7.78;;;4.57;;
35530;SDS011;21637;53.352;-6.356;2023-08-06T01:03:33;12.25;;;5.30;;
35530;SDS011;21637;53.352;-6.356;2023-08-06T01:05:58;8.68;;;4.07;;
35530;SDS011;21637;53.352;-6.356;2023-08-06T01:08:30;8.18;;;4.30;;
35530;SDS011;21637;53.352;-6.356;2023-08-06T01:14:18;6.07;;;4.28;;
35530;SDS011;21637;53.352;-6.356;2023-08-06T01:16:55;8.57;;;4.30;;
35530;SDS011;21637;53.352;-6.356;2023-08-06T01:19:23;11.73;;;4.53;;
35530;SDS011;21637;53.352;-6.356;2023-08-06T01:21:49;11.75;;;4.50;;
35530;SDS011;21637;53.352;-6.356;2023-08-06T01:24:15;9.18;;;4.25;;
35530;SDS011;21637;53.352;-6.356;2023-08-06T01:29:35;9.70;;;4.32;;
35530;SDS011;21637;53.352;-6.356;2023-08-06T01:32:10;11.88;;;4.93;;
35530;SDS011;21637;53.352;-6.356;2023-08-06T01:34:40;9.02;;;4.45;;
35530;SDS011;21637;53.352;-6.356;2023-08-06T01:37:08;9.25;;;4.35;;
35530;SDS011;21637;53.352;-6.356;2023-08-06T01:39:34;10.05;;;5.32;;
35530;SDS011;21637;53.352;-6.356;2023-08-06T01:42:00;10.10;;;4.40;;
35530;SDS011;21637;53.352;-6.356;2023-08-06T01:44:26;8.77;;;3.85;;
35530;SDS011;21637;53.352;-6.356;2023-08-06T01:46:52;5.95;;;3.80;;
35530;SDS011;21637;53.352;-6.356;2023-08-06T01:49:17;11.85;;;4.70;;
35530;SDS011;21637;53.352;-6.356;2023-08-06T01:51:43;8.50;;;4.43;;
35530;SDS011;21637;53.352;-6.356;2023-08-06T01:54:09;7.35;;;4.20;;
35530;SDS011;21637;53.352;-6.356;2023-08-06T01:56:34;9.30;;;4.38;;
35530;SDS011;21637;53.352;-6.356;2023-08-06T01:59:00;9.00;;;4.53;;
35530;SDS011;21637;53.352;-6.356;2023-08-06T02:01:26;7.85;;;4.90;;
35530;SDS011;21637;53.352;-6.356;2023-08-06T02:03:51;8.88;;;4.60;;
35530;SDS011;21637;53.352;-6.356;2023-08-06T02:06:17;9.35;;;4.60;;
35530;SDS011;21637;53.352;-6.356;2023-08-06T02:08:43;9.02;;;4.35;;
35530;SDS011;21637;53.352;-6.356;2023-08-06T02:11:08;7.80;;;4.57;;
35530;SDS011;21637;53.352;-6.356;2023-08-06T02:13:34;6.07;;;4.00;;
35530;SDS011;21637;53.352;-6.356;2023-08-06T02:16:00;10.35;;;4.28;;
35530;SDS011;21637;53.352;-6.356;2023-08-06T02:18:25;10.18;;;4.70;;
35530;SDS011;21637;53.352;-6.356;2023-08-06T02:20:58;10.68;;;4.43;;
35530;SDS011;21637;53.352;-6.356;2023-08-06T02:26:02;9.60;;;4.60;;
35530;SDS011;21637;53.352;-6.356;2023-08-06T02:28:31;7.50;;;4.07;;
35530;SDS011;21637;53.352;-6.356;2023-08-06T02:30:57;8.38;;;4.50;;
35530;SDS011;21637;53.352;-6.356;2023-08-06T02:33:23;8.90;;;4.72;;
35530;SDS011;21637;53.352;-6.356;2023-08-06T02:35:49;6.07;;;4.07;;
35530;SDS011;21637;53.352;-6.356;2023-08-06T02:38:14;11.30;;;4.60;;
35530;SDS011;21637;53.352;-6.356;2023-08-06T02:40:43;9.50;;;4.85;;
35530;SDS011;21637;53.352;-6.356;2023-08-06T02:43:10;12.05;;;4.57;;
35530;SDS011;21637;53.352;-6.356;2023-08-06T02:45:36;8.05;;;4.78;;
35530;SDS011;21637;53.352;-6.356;2023-08-06T02:48:02;8.18;;;4.60;;
35530;SDS011;21637;53.352;-6.356;2023-08-06T02:50:28;13.18;;;4.53;;
35530;SDS011;21637;53.352;-6.356;2023-08-06T02:52:53;10.60;;;4.72;;
35530;SDS011;21637;53.352;-6.356;2023-08-06T02:55:19;8.85;;;4.13;;
35530;SDS011;21637;53.352;-6.356;2023-08-06T02:57:45;13.23;;;4.65;;
35530;SDS011;21637;53.352;-6.356;2023-08-06T03:00:10;9.93;;;4.82;;
35530;SDS011;21637;53.352;-6.356;2023-08-06T03:02:36;12.10;;;6.00;;
35530;SDS011;21637;53.352;-6.356;2023-08-06T03:05:02;9.38;;;4.82;;
35530;SDS011;21637;53.352;-6.356;2023-08-06T03:07:29;11.32;;;5.07;;
35530;SDS011;21637;53.352;-6.356;2023-08-06T03:09:54;12.15;;;5.25;;
35530;SDS011;21637;53.352;-6.356;2023-08-06T03:12:20;14.27;;;5.13;;
35530;SDS011;21637;53.352;-6.356;2023-08-06T03:14:46;11.48;;;5.07;;
35530;SDS011;21637;53.352;-6.356;2023-08-06T03:17:11;14.27;;;5.57;;
35530;SDS011;21637;53.352;-6.356;2023-08-06T03:19:37;14.40;;;5.25;;
35530;SDS011;21637;53.352;-6.356;2023-08-06T03:22:03;9.73;;;5.38;;
35530;SDS011;21637;53.352;-6.356;2023-08-06T03:24:29;13.45;;;4.55;;
35530;SDS011;21637;53.352;-6.356;2023-08-06T03:26:54;12.70;;;5.20;;
35530;SDS011;21637;53.352;-6.356;2023-08-06T03:29:20;15.20;;;5.25;;
35530;SDS011;21637;53.352;-6.356;2023-08-06T03:31:47;10.10;;;5.22;;
35530;SDS011;21637;53.352;-6.356;2023-08-06T03:34:12;12.82;;;5.15;;
35530;SDS011;21637;53.352;-6.356;2023-08-06T03:36:38;11.32;;;5.10;;
35530;SDS011;21637;53.352;-6.356;2023-08-06T03:39:04;8.18;;;4.53;;
35530;SDS011;21637;53.352;-6.356;2023-08-06T03:41:30;9.68;;;4.60;;
35530;SDS011;21637;53.352;-6.356;2023-08-06T03:43:55;8.68;;;4.60;;
35530;SDS011;21637;53.352;-6.356;2023-08-06T03:46:21;13.68;;;5.60;;
35530;SDS011;21637;53.352;-6.356;2023-08-06T03:48:47;11.23;;;5.28;;
35530;SDS011;21637;53.352;-6.356;2023-08-06T03:51:12;11.57;;;5.32;;
35530;SDS011;21637;53.352;-6.356;2023-08-06T03:53:38;8.95;;;4.97;;
35530;SDS011;21637;53.352;-6.356;2023-08-06T03:56:04;10.40;;;4.60;;
35530;SDS011;21637;53.352;-6.356;2023-08-06T03:58:30;12.13;;;4.82;;
35530;SDS011;21637;53.352;-6.356;2023-08-06T04:00:59;9.20;;;4.78;;
35530;SDS011;21637;53.352;-6.356;2023-08-06T04:03:25;9.23;;;4.60;;
35530;SDS011;21637;53.352;-6.356;2023-08-06T04:05:51;9.25;;;4.57;;
35530;SDS011;21637;53.352;-6.356;2023-08-06T04:08:17;10.80;;;4.65;;
35530;SDS011;21637;53.352;-6.356;2023-08-06T04:10:43;11.48;;;4.47;;
35530;SDS011;21637;53.352;-6.356;2023-08-06T04:13:08;8.45;;;5.00;;
35530;SDS011;21637;53.352;-6.356;2023-08-06T04:15:34;8.80;;;4.90;;
35530;SDS011;21637;53.352;-6.356;2023-08-06T04:18:00;9.25;;;4.75;;
35530;SDS011;21637;53.352;-6.356;2023-08-06T04:20:25;10.52;;;4.85;;
35530;SDS011;21637;53.352;-6.356;2023-08-06T04:22:53;10.60;;;4.88;;
35530;SDS011;21637;53.352;-6.356;2023-08-06T04:25:19;12.93;;;5.05;;
35530;SDS011;21637;53.352;-6.356;2023-08-06T04:27:49;9.57;;;4.78;;
35530;SDS011;21637;53.352;-6.356;2023-08-06T04:30:15;9.40;;;4.18;;
35530;SDS011;21637;53.352;-6.356;2023-08-06T04:32:40;11.13;;;4.88;;
35530;SDS011;21637;53.352;-6.356;2023-08-06T04:35:06;10.95;;;5.13;;
35530;SDS011;21637;53.352;-6.356;2023-08-06T04:37:32;12.23;;;5.28;;
35530;SDS011;21637;53.352;-6.356;2023-08-06T04:39:58;11.10;;;5.03;;
35530;SDS011;21637;53.352;-6.356;2023-08-06T04:42:23;8.93;;;4.82;;
35530;SDS011;21637;53.352;-6.356;2023-08-06T04:44:49;7.40;;;4.63;;
35530;SDS011;21637;53.352;-6.356;2023-08-06T04:47:15;9.80;;;4.20;;
35530;SDS011;21637;53.352;-6.356;2023-08-06T04:49:41;8.30;;;4.47;;
35530;SDS011;21637;53.352;-6.356;2023-08-06T04:52:07;10.32;;;5.00;;
35530;SDS011;21637;53.352;-6.356;2023-08-06T04:54:33;9.10;;;4.50;;
35530;SDS011;21637;53.352;-6.356;2023-08-06T04:56:59;9.95;;;5.05;;
35530;SDS011;21637;53.352;-6.356;2023-08-06T04:59:24;13.40;;;4.50;;
35530;SDS011;21637;53.352;-6.356;2023-08-06T05:01:50;11.23;;;5.00;;
35530;SDS011;21637;53.352;-6.356;2023-08-06T05:04:16;10.13;;;4.88;;
35530;SDS011;21637;53.352;-6.356;2023-08-06T05:06:41;13.77;;;5.35;;
35530;SDS011;21637;53.352;-6.356;2023-08-06T05:09:07;11.35;;;4.93;;
35530;SDS011;21637;53.352;-6.356;2023-08-06T05:11:33;11.73;;;5.25;;
35530;SDS011;21637;53.352;-6.356;2023-08-06T05:13:58;9.07;;;4.55;;
35530;SDS011;21637;53.352;-6.356;2023-08-06T05:16:24;11.75;;;5.47;;
35530;SDS011;21637;53.352;-6.356;2023-08-06T05:18:50;10.85;;;5.40;;
35530;SDS011;21637;53.352;-6.356;2023-08-06T05:21:15;14.63;;;5.32;;
35530;SDS011;21637;53.352;-6.356;2023-08-06T05:23:42;9.93;;;4.90;;
35530;SDS011;21637;53.352;-6.356;2023-08-06T05:26:08;12.32;;;5.00;;
35530;SDS011;21637;53.352;-6.356;2023-08-06T05:28:34;11.60;;;5.60;;
35530;SDS011;21637;53.352;-6.356;2023-08-06T05:31:03;9.88;;;5.00;;
35530;SDS011;21637;53.352;-6.356;2023-08-06T05:33:30;12.00;;;5.13;;
35530;SDS011;21637;53.352;-6.356;2023-08-06T05:35:56;12.93;;;5.25;;
35530;SDS011;21637;53.352;-6.356;2023-08-06T05:38:21;10.07;;;5.43;;
35530;SDS011;21637;53.352;-6.356;2023-08-06T05:40:47;13.00;;;5.32;;
35530;SDS011;21637;53.352;-6.356;2023-08-06T05:43:14;11.10;;;5.03;;
35530;SDS011;21637;53.352;-6.356;2023-08-06T05:45:39;11.15;;;5.10;;
35530;SDS011;21637;53.352;-6.356;2023-08-06T05:48:10;8.32;;;4.70;;
35530;SDS011;21637;53.352;-6.356;2023-08-06T05:50:35;9.30;;;5.05;;
35530;SDS011;21637;53.352;-6.356;2023-08-06T05:53:01;10.38;;;4.70;;
35530;SDS011;21637;53.352;-6.356;2023-08-06T05:55:27;6.13;;;3.67;;
35530;SDS011;21637;53.352;-6.356;2023-08-06T05:57:52;7.90;;;4.35;;
35530;SDS011;21637;53.352;-6.356;2023-08-06T06:00:18;8.60;;;4.50;;
35530;SDS011;21637;53.352;-6.356;2023-08-06T06:02:44;8.20;;;3.80;;
35530;SDS011;21637;53.352;-6.356;2023-08-06T06:05:11;6.57;;;3.50;;
35530;SDS011;21637;53.352;-6.356;2023-08-06T06:07:36;10.10;;;3.38;;
35530;SDS011;21637;53.352;-6.356;2023-08-06T06:10:02;10.05;;;3.38;;
35530;SDS011;21637;53.352;-6.356;2023-08-06T06:12:28;8.57;;;3.72;;
35530;SDS011;21637;53.352;-6.356;2023-08-06T06:14:54;6.13;;;3.42;;
35530;SDS011;21637;53.352;-6.356;2023-08-06T06:17:19;5.05;;;3.45;;
35530;SDS011;21637;53.352;-6.356;2023-08-06T06:19:45;8.00;;;3.20;;
35530;SDS011;21637;53.352;-6.356;2023-08-06T06:22:11;6.40;;;3.22;;
35530;SDS011;21637;53.352;-6.356;2023-08-06T06:24:37;8.27;;;3.10;;
35530;SDS011;21637;53.352;-6.356;2023-08-06T06:27:03;6.18;;;3.25;;
35530;SDS011;21637;53.352;-6.356;2023-08-06T06:29:29;8.15;;;3.60;;
35530;SDS011;21637;53.352;-6.356;2023-08-06T06:31:55;5.95;;;3.17;;
35530;SDS011;21637;53.352;-6.356;2023-08-06T06:34:20;10.50;;;3.10;;
35530;SDS011;21637;53.352;-6.356;2023-08-06T06:36:47;5.38;;;2.85;;
35530;SDS011;21637;53.352;-6.356;2023-08-06T06:39:13;8.43;;;3.20;;
35530;SDS011;21637;53.352;-6.356;2023-08-06T06:41:38;7.15;;;3.65;;
35530;SDS011;21637;53.352;-6.356;2023-08-06T06:44:05;8.70;;;4.80;;
35530;SDS011;21637;53.352;-6.356;2023-08-06T06:46:31;8.02;;;3.90;;
35530;SDS011;21637;53.352;-6.356;2023-08-06T06:48:56;7.47;;;3.90;;
35530;SDS011;21637;53.352;-6.356;2023-08-06T06:51:22;10.38;;;3.67;;
35530;SDS011;21637;53.352;-6.356;2023-08-06T06:53:48;5.70;;;3.65;;
35530;SDS011;21637;53.352;-6.356;2023-08-06T06:56:13;5.80;;;3.63;;
35530;SDS011;21637;53.352;-6.356;2023-08-06T06:58:39;7.82;;;3.85;;
35530;SDS011;21637;53.352;-6.356;2023-08-06T07:01:06;9.52;;;3.90;;
35530;SDS011;21637;53.352;-6.356;2023-08-06T07:03:32;6.65;;;3.60;;
35530;SDS011;21637;53.352;-6.356;2023-08-06T07:05:58;6.28;;;3.70;;
35530;SDS011;21637;53.352;-6.356;2023-08-06T07:08:24;11.88;;;3.92;;
35530;SDS011;21637;53.352;-6.356;2023-08-06T07:10:50;7.40;;;3.53;;
35530;SDS011;21637;53.352;-6.356;2023-08-06T07:13:24;11.73;;;4.30;;
35530;SDS011;21637;53.352;-6.356;2023-08-06T07:15:49;9.40;;;3.85;;
35530;SDS011;21637;53.352;-6.356;2023-08-06T07:18:15;8.93;;;4.03;;
35530;SDS011;21637;53.352;-6.356;2023-08-06T07:20:41;7.60;;;3.67;;
35530;SDS011;21637;53.352;-6.356;2023-08-06T07:23:06;7.05;;;3.40;;
35530;SDS011;21637;53.352;-6.356;2023-08-06T07:25:32;8.13;;;3.08;;
35530;SDS011;21637;53.352;-6.356;2023-08-06T07:27:58;9.80;;;3.65;;
35530;SDS011;21637;53.352;-6.356;2023-08-06T07:30:24;3.95;;;2.75;;
35530;SDS011;21637;53.352;-6.356;2023-08-06T07:32:49;6.88;;;3.00;;
35530;SDS011;21637;53.352;-6.356;2023-08-06T07:35:15;5.15;;;2.60;;
35530;SDS011;21637;53.352;-6.356;2023-08-06T07:37:41;6.03;;;2.90;;
35530;SDS011;21637;53.352;-6.356;2023-08-06T07:40:06;7.78;;;3.22;;
35530;SDS011;21637;53.352;-6.356;2023-08-06T07:42:33;4.60;;;2.75;;
35530;SDS011;21637;53.352;-6.356;2023-08-06T07:44:59;4.88;;;2.58;;
35530;SDS011;21637;53.352;-6.356;2023-08-06T07:47:25;7.07;;;2.53;;
35530;SDS011;21637;53.352;-6.356;2023-08-06T07:49:50;6.00;;;2.45;;
35530;SDS011;21637;53.352;-6.356;2023-08-06T07:52:16;8.90;;;3.17;;
35530;SDS011;21637;53.352;-6.356;2023-08-06T07:54:42;6.05;;;2.55;;
35530;SDS011;21637;53.352;-6.356;2023-08-06T07:57:08;6.70;;;3.00;;
35530;SDS011;21637;53.352;-6.356;2023-08-06T07:59:34;5.43;;;3.20;;
35530;SDS011;21637;53.352;-6.356;2023-08-06T08:02:00;4.78;;;2.47;;
35530;SDS011;21637;53.352;-6.356;2023-08-06T08:04:26;8.20;;;2.88;;
35530;SDS011;21637;53.352;-6.356;2023-08-06T08:06:51;6.13;;;2.80;;
35530;SDS011;21637;53.352;-6.356;2023-08-06T08:09:17;9.10;;;3.00;;
35530;SDS011;21637;53.352;-6.356;2023-08-06T08:11:43;6.75;;;2.97;;
35530;SDS011;21637;53.352;-6.356;2023-08-06T08:14:09;7.07;;;3.03;;
35530;SDS011;21637;53.352;-6.356;2023-08-06T08:16:35;7.18;;;2.90;;
35530;SDS011;21637;53.352;-6.356;2023-08-06T08:19:01;5.38;;;3.17;;
35530;SDS011;21637;53.352;-6.356;2023-08-06T08:21:28;5.88;;;2.97;;
35530;SDS011;21637;53.352;-6.356;2023-08-06T08:23:53;6.57;;;3.00;;
35530;SDS011;21637;53.352;-6.356;2023-08-06T08:26:19;6.65;;;3.28;;
35530;SDS011;21637;53.352;-6.356;2023-08-06T08:28:45;7.18;;;3.55;;
35530;SDS011;21637;53.352;-6.356;2023-08-06T08:31:11;4.65;;;2.88;;
35530;SDS011;21637;53.352;-6.356;2023-08-06T08:33:39;6.88;;;2.72;;
35530;SDS011;21637;53.352;-6.356;2023-08-06T08:36:05;6.75;;;2.80;;
35530;SDS011;21637;53.352;-6.356;2023-08-06T08:38:31;4.68;;;2.58;;
35530;SDS011;21637;53.352;-6.356;2023-08-06T08:40:57;6.45;;;2.63;;
35530;SDS011;21637;53.352;-6.356;2023-08-06T08:43:23;8.80;;;2.92;;
35530;SDS011;21637;53.352;-6.356;2023-08-06T08:45:52;5.15;;;2.60;;
35530;SDS011;21637;53.352;-6.356;2023-08-06T08:48:24;4.15;;;2.22;;
35530;SDS011;21637;53.352;-6.356;2023-08-06T08:50:52;8.18;;;2.55;;
35530;SDS011;21637;53.352;-6.356;2023-08-06T08:53:17;7.03;;;2.97;;
35530;SDS011;21637;53.352;-6.356;2023-08-06T08:55:46;4.05;;;2.40;;
35530;SDS011;21637;53.352;-6.356;2023-08-06T08:58:13;8.02;;;2.85;;
35530;SDS011;21637;53.352;-6.356;2023-08-06T09:00:39;6.10;;;2.42;;
35530;SDS011;21637;53.352;-6.356;2023-08-06T09:03:07;4.28;;;2.40;;
35530;SDS011;21637;53.352;-6.356;2023-08-06T09:05:33;5.45;;;2.85;;
35530;SDS011;21637;53.352;-6.356;2023-08-06T09:08:03;5.55;;;2.50;;
35530;SDS011;21637;53.352;-6.356;2023-08-06T09:10:29;5.32;;;2.33;;
35530;SDS011;21637;53.352;-6.356;2023-08-06T09:12:56;7.50;;;2.50;;
35530;SDS011;21637;53.352;-6.356;2023-08-06T09:15:26;5.65;;;2.80;;
35530;SDS011;21637;53.352;-6.356;2023-08-06T09:17:55;10.20;;;2.58;;
35530;SDS011;21637;53.352;-6.356;2023-08-06T09:20:21;3.50;;;2.30;;
35530;SDS011;21637;53.352;-6.356;2023-08-06T09:22:47;7.55;;;2.45;;
35530;SDS011;21637;53.352;-6.356;2023-08-06T09:25:23;7.15;;;2.90;;
35530;SDS011;21637;53.352;-6.356;2023-08-06T09:27:50;5.15;;;2.42;;
35530;SDS011;21637;53.352;-6.356;2023-08-06T09:30:29;6.25;;;2.50;;
35530;SDS011;21637;53.352;-6.356;2023-08-06T09:32:56;5.30;;;2.50;;
35530;SDS011;21637;53.352;-6.356;2023-08-06T09:35:22;3.97;;;2.20;;
35530;SDS011;21637;53.352;-6.356;2023-08-06T09:37:48;6.13;;;2.35;;
35530;SDS011;21637;53.352;-6.356;2023-08-06T09:40:29;7.13;;;2.67;;
35530;SDS011;21637;53.352;-6.356;2023-08-06T09:42:57;7.93;;;2.58;;
35530;SDS011;21637;53.352;-6.356;2023-08-06T09:45:28;5.43;;;2.47;;
35530;SDS011;21637;53.352;-6.356;2023-08-06T09:47:58;5.25;;;2.00;;
35530;SDS011;21637;53.352;-6.356;2023-08-06T09:50:31;5.53;;;2.67;;
35530;SDS011;21637;53.352;-6.356;2023-08-06T09:52:58;5.25;;;2.40;;
35530;SDS011;21637;53.352;-6.356;2023-08-06T09:55:25;3.35;;;2.00;;
35530;SDS011;21637;53.352;-6.356;2023-08-06T09:57:52;5.18;;;2.00;;
35530;SDS011;21637;53.352;-6.356;2023-08-06T10:00:18;3.45;;;1.80;;
35530;SDS011;21637;53.352;-6.356;2023-08-06T10:02:45;4.15;;;1.88;;
35530;SDS011;21637;53.352;-6.356;2023-08-06T10:05:11;3.05;;;1.60;;
35530;SDS011;21637;53.352;-6.356;2023-08-06T10:07:37;4.05;;;1.90;;
35530;SDS011;21637;53.352;-6.356;2023-08-06T10:10:05;2.42;;;1.50;;
35530;SDS011;21637;53.352;-6.356;2023-08-06T10:12:32;4.70;;;1.50;;
35530;SDS011;21637;53.352;-6.356;2023-08-06T10:15:01;6.20;;;1.48;;
35530;SDS011;21637;53.352;-6.356;2023-08-06T10:17:31;4.78;;;1.63;;
35530;SDS011;21637;53.352;-6.356;2023-08-06T10:19:58;4.93;;;1.55;;
35530;SDS011;21637;53.352;-6.356;2023-08-06T10:22:24;4.03;;;1.42;;
35530;SDS011;21637;53.352;-6.356;2023-08-06T10:28:19;7.25;;;1.85;;
35530;SDS011;21637;53.352;-6.356;2023-08-06T10:30:30;2.83;;;1.30;;
35530;SDS011;21637;53.352;-6.356;2023-08-06T10:35:30;5.18;;;1.45;;
35530;SDS011;21637;53.352;-6.356;2023-08-06T10:40:39;6.63;;;2.00;;
35530;SDS011;21637;53.352;-6.356;2023-08-06T10:43:06;5.78;;;1.25;;
35530;SDS011;21637;53.352;-6.356;2023-08-06T10:45:35;5.40;;;1.70;;
35530;SDS011;21637;53.352;-6.356;2023-08-06T10:48:03;4.00;;;1.60;;
35530;SDS011;21637;53.352;-6.356;2023-08-06T10:50:29;2.80;;;1.50;;
35530;SDS011;21637;53.352;-6.356;2023-08-06T10:52:56;2.05;;;1.50;;
35530;SDS011;21637;53.352;-6.356;2023-08-06T10:55:23;2.78;;;1.30;;
35530;SDS011;21637;53.352;-6.356;2023-08-06T10:57:49;4.78;;;1.55;;
35530;SDS011;21637;53.352;-6.356;2023-08-06T11:00:15;5.07;;;1.58;;
35530;SDS011;21637;53.352;-6.356;2023-08-06T11:02:41;3.45;;;2.05;;
35530;SDS011;21637;53.352;-6.356;2023-08-06T11:05:07;3.53;;;1.50;;
35530;SDS011;21637;53.352;-6.356;2023-08-06T11:07:35;3.50;;;1.52;;
35530;SDS011;21637;53.352;-6.356;2023-08-06T11:10:05;2.25;;;1.23;;
35530;SDS011;21637;53.352;-6.356;2023-08-06T11:12:33;4.53;;;1.10;;
35530;SDS011;21637;53.352;-6.356;2023-08-06T11:15:00;4.88;;;1.10;;
35530;SDS011;21637;53.352;-6.356;2023-08-06T11:17:29;1.40;;;1.10;;
35530;SDS011;21637;53.352;-6.356;2023-08-06T11:19:58;3.95;;;0.90;;
35530;SDS011;21637;53.352;-6.356;2023-08-06T11:22:25;2.92;;;0.98;;
35530;SDS011;21637;53.352;-6.356;2023-08-06T11:24:52;2.50;;;1.05;;
35530;SDS011;21637;53.352;-6.356;2023-08-06T11:27:18;3.08;;;1.00;;
35530;SDS011;21637;53.352;-6.356;2023-08-06T11:29:44;2.38;;;1.23;;
35530;SDS011;21637;53.352;-6.356;2023-08-06T11:32:10;4.07;;;1.25;;
35530;SDS011;21637;53.352;-6.356;2023-08-06T11:34:37;1.80;;;1.10;;
35530;SDS011;21637;53.352;-6.356;2023-08-06T11:37:03;2.53;;;1.00;;
35530;SDS011;21637;53.352;-6.356;2023-08-06T11:39:39;3.08;;;1.05;;
35530;SDS011;21637;53.352;-6.356;2023-08-06T11:42:11;3.05;;;1.23;;
35530;SDS011;21637;53.352;-6.356;2023-08-06T11:44:37;1.80;;;0.98;;
35530;SDS011;21637;53.352;-6.356;2023-08-06T11:47:04;2.65;;;1.02;;
35530;SDS011;21637;53.352;-6.356;2023-08-06T11:49:47;1.83;;;0.80;;
35530;SDS011;21637;53.352;-6.356;2023-08-06T11:52:15;3.08;;;1.10;;
35530;SDS011;21637;53.352;-6.356;2023-08-06T11:54:41;1.00;;;0.90;;
35530;SDS011;21637;53.352;-6.356;2023-08-06T11:57:07;1.23;;;1.00;;
35530;SDS011;21637;53.352;-6.356;2023-08-06T11:59:33;1.10;;;0.90;;
35530;SDS011;21637;53.352;-6.356;2023-08-06T12:02:01;1.73;;;1.00;;
35530;SDS011;21637;53.352;-6.356;2023-08-06T12:04:31;2.78;;;0.90;;
35530;SDS011;21637;53.352;-6.356;2023-08-06T12:07:07;2.10;;;1.02;;
35530;SDS011;21637;53.352;-6.356;2023-08-06T12:09:35;3.63;;;1.33;;
35530;SDS011;21637;53.352;-6.356;2023-08-06T12:12:01;2.78;;;1.30;;
35530;SDS011;21637;53.352;-6.356;2023-08-06T12:14:27;2.67;;;1.00;;
35530;SDS011;21637;53.352;-6.356;2023-08-06T12:16:52;2.17;;;0.80;;
35530;SDS011;21637;53.352;-6.356;2023-08-06T12:19:18;3.95;;;1.00;;
35530;SDS011;21637;53.352;-6.356;2023-08-06T12:21:44;2.00;;;0.90;;
35530;SDS011;21637;53.352;-6.356;2023-08-06T12:24:09;3.63;;;0.95;;
35530;SDS011;21637;53.352;-6.356;2023-08-06T12:26:35;2.22;;;0.88;;
35530;SDS011;21637;53.352;-6.356;2023-08-06T12:29:01;2.17;;;1.10;;
35530;SDS011;21637;53.352;-6.356;2023-08-06T12:31:27;2.80;;;0.90;;
35530;SDS011;21637;53.352;-6.356;2023-08-06T12:33:52;4.30;;;0.80;;
35530;SDS011;21637;53.352;-6.356;2023-08-06T12:36:18;1.33;;;0.80;;
35530;SDS011;21637;53.352;-6.356;2023-08-06T12:38:44;2.15;;;0.70;;
35530;SDS011;21637;53.352;-6.356;2023-08-06T12:41:09;2.03;;;0.70;;
35530;SDS011;21637;53.352;-6.356;2023-08-06T12:43:35;3.58;;;0.85;;
35530;SDS011;21637;53.352;-6.356;2023-08-06T12:46:01;1.40;;;0.60;;
35530;SDS011;21637;53.352;-6.356;2023-08-06T12:48:26;0.95;;;0.50;;
35530;SDS011;21637;53.352;-6.356;2023-08-06T12:50:52;0.90;;;0.60;;
35530;SDS011;21637;53.352;-6.356;2023-08-06T12:53:18;2.03;;;0.88;;
35530;SDS011;21637;53.352;-6.356;2023-08-06T12:55:46;3.28;;;0.70;;
35530;SDS011;21637;53.352;-6.356;2023-08-06T12:58:11;3.45;;;0.90;;
35530;SDS011;21637;53.352;-6.356;2023-08-06T13:00:37;2.38;;;0.82;;
35530;SDS011;21637;53.352;-6.356;2023-08-06T13:03:03;1.60;;;0.60;;
35530;SDS011;21637;53.352;-6.356;2023-08-06T13:05:28;0.68;;;0.63;;
35530;SDS011;21637;53.352;-6.356;2023-08-06T13:07:54;2.20;;;0.77;;
35530;SDS011;21637;53.352;-6.356;2023-08-06T13:10:20;6.97;;;1.08;;
35530;SDS011;21637;53.352;-6.356;2023-08-06T13:12:46;2.90;;;0.95;;
35530;SDS011;21637;53.352;-6.356;2023-08-06T13:15:12;2.17;;;1.10;;
35530;SDS011;21637;53.352;-6.356;2023-08-06T13:17:39;2.15;;;0.90;;
35530;SDS011;21637;53.352;-6.356;2023-08-06T13:20:05;3.85;;;1.05;;
35530;SDS011;21637;53.352;-6.356;2023-08-06T13:22:31;1.95;;;0.90;;
35530;SDS011;21637;53.352;-6.356;2023-08-06T13:24:57;2.05;;;1.00;;
35530;SDS011;21637;53.352;-6.356;2023-08-06T13:27:22;2.72;;;0.93;;
35530;SDS011;21637;53.352;-6.356;2023-08-06T13:29:48;1.33;;;0.90;;
35530;SDS011;21637;53.352;-6.356;2023-08-06T13:32:14;2.70;;;0.93;;
35530;SDS011;21637;53.352;-6.356;2023-08-06T13:34:40;1.67;;;0.98;;
35530;SDS011;21637;53.352;-6.356;2023-08-06T13:37:05;1.70;;;0.75;;
35530;SDS011;21637;53.352;-6.356;2023-08-06T13:39:31;2.53;;;1.20;;
35530;SDS011;21637;53.352;-6.356;2023-08-06T13:41:57;4.13;;;1.80;;
35530;SDS011;21637;53.352;-6.356;2023-08-06T13:44:22;2.90;;;1.00;;
35530;SDS011;21637;53.352;-6.356;2023-08-06T13:46:48;2.03;;;1.08;;
35530;SDS011;21637;53.352;-6.356;2023-08-06T13:49:14;4.05;;;1.10;;
35530;SDS011;21637;53.352;-6.356;2023-08-06T13:51:40;2.85;;;1.13;;
35530;SDS011;21637;53.352;-6.356;2023-08-06T13:54:05;3.38;;;1.23;;
35530;SDS011;21637;53.352;-6.356;2023-08-06T13:56:32;2.08;;;1.40;;
35530;SDS011;21637;53.352;-6.356;2023-08-06T13:58:58;2.22;;;1.05;;
35530;SDS011;21637;53.352;-6.356;2023-08-06T14:01:23;2.30;;;0.95;;
35530;SDS011;21637;53.352;-6.356;2023-08-06T14:03:49;2.00;;;1.02;;
35530;SDS011;21637;53.352;-6.356;2023-08-06T14:06:15;1.27;;;0.85;;
35530;SDS011;21637;53.352;-6.356;2023-08-06T14:08:40;3.20;;;1.05;;
35530;SDS011;21637;53.352;-6.356;2023-08-06T14:11:06;4.47;;;1.00;;
35530;SDS011;21637;53.352;-6.356;2023-08-06T14:13:32;3.20;;;0.80;;
35530;SDS011;21637;53.352;-6.356;2023-08-06T14:15:58;1.33;;;0.80;;
35530;SDS011;21637;53.352;-6.356;2023-08-06T14:18:23;2.08;;;0.95;;
35530;SDS011;21637;53.352;-6.356;2023-08-06T14:20:50;2.75;;;1.10;;
35530;SDS011;21637;53.352;-6.356;2023-08-06T14:23:15;2.70;;;1.40;;
35530;SDS011;21637;53.352;-6.356;2023-08-06T14:25:41;1.98;;;1.00;;
35530;SDS011;21637;53.352;-6.356;2023-08-06T14:28:07;3.00;;;0.98;;
35530;SDS011;21637;53.352;-6.356;2023-08-06T14:30:33;2.55;;;1.30;;
35530;SDS011;21637;53.352;-6.356;2023-08-06T14:32:59;1.77;;;1.00;;
35530;SDS011;21637;53.352;-6.356;2023-08-06T14:35:26;3.42;;;1.10;;
35530;SDS011;21637;53.352;-6.356;2023-08-06T14:37:51;2.72;;;1.10;;
35530;SDS011;21637;53.352;-6.356;2023-08-06T14:40:17;1.70;;;1.15;;
35530;SDS011;21637;53.352;-6.356;2023-08-06T14:42:43;3.03;;;1.00;;